Tropical Cyclones
[Index]
Main Index Home Page Stock Weather Photos Extreme Storms Discussion Storm News and Storm Chasing Reports Tropical Cyclones / Hurricanes / Typhoons Weather Data and Links Wild Fires / Bushfires Weather Observation Techniques Weather Picture Catalogue Tornado Pictures and Reports Stock Video Footage and DVDs for sale
Season 1996-1997 Tropical Cyclone FABRIOLA Track Map
Season 1996-1997 Summaries: [BoM-AU] [JTWC-AU] [JTWC-SIO] [JTWC-SPAC] [JTWC-SH]
<<- Previous TC | JTWC 1996-1997 Season | Next TC ->>

click for intensity scale information  Lat/long Grid: Show Hide

 Date Labels: Show Hide

Joint Typhoon Warning Centre Cyclone Data

Name: FABRIOLA

25 Dec 1996 18:00 UTC to 09 Jan 1997 00:00 UTC

    date/time    lat    long     hPa   cat  kts
1996-12-25 18   12.0    60.0                  15          
1996-12-26 00   12.0    60.0                  15          
1996-12-26 06   12.0    60.0                  15          
1996-12-26 12   12.0    60.0                  15          
1996-12-26 18   12.0    60.0                  15          
1996-12-27 00   12.0    60.0                  15          
1996-12-27 06   12.0    60.0                  15          
1996-12-27 12   12.0    60.0                  15          
1996-12-27 18   12.0    60.0                  15          
1996-12-28 00   12.0    60.0                  15          
1996-12-28 06   12.0    60.0                  15          
1996-12-28 12   12.0    60.0                  15          
1996-12-28 18   12.0    60.0                  15          
1996-12-29 00   12.0    60.0                  15          
1996-12-29 06   12.0    60.0                  15          
1996-12-29 12   12.0    60.0                  15          
1996-12-29 18   12.0    60.0                  15          
1996-12-30 00   12.0    60.0                  15          
1996-12-30 06   12.0    60.0                  15          
1996-12-30 12   12.0    60.0                  15          
1996-12-30 18   12.0    60.0                  15          
1996-12-31 00   12.0    60.0                  15          
1996-12-31 06   12.0    60.0                  15          
1996-12-31 12   12.0    60.0                  15          
1996-12-31 18   12.1    59.8                  15          
1997-01-01 00   12.3    59.5                  15          
1997-01-01 06   12.6    58.8                  15          
1997-01-01 12   13.1    58.3                  15          
1997-01-01 18   13.4    57.7                  20          
1997-01-02 00   13.7    57.1                  20          
1997-01-02 06   13.9    56.4                  25          
1997-01-02 12   14.0    55.7                  30          
1997-01-02 18   14.2    55.0                  35          
1997-01-03 00   14.4    54.2            1     40          
1997-01-03 06   14.3    53.3            1     50          
1997-01-03 12   14.5    52.5            2     55          
1997-01-03 18   14.8    51.9            2     55          
1997-01-04 00   15.3    51.3            2     55          
1997-01-04 06   15.7    50.5            2     60          
1997-01-04 12   15.7    49.6            1     50          
1997-01-04 18   15.7    48.7            1     40          
1997-01-05 00   15.6    47.9                  30          
1997-01-05 06   15.4    46.9                  35          
1997-01-05 12   15.4    45.8                  35          
1997-01-05 18   15.7    44.7                  35          
1997-01-06 00   16.5    43.9                  35          
1997-01-06 06   17.3    43.4                  35          
1997-01-06 12   18.1    43.2                  35          
1997-01-06 18   18.9    43.1                  35          
1997-01-07 00   19.7    43.0                  35          
1997-01-07 06   20.5    43.0            1     45          
1997-01-07 12   21.2    43.5            2     55          
1997-01-07 18   21.9    44.1            1     45          
1997-01-08 00   22.8    44.7                  35          
1997-01-08 06   23.8    45.8                  30          
1997-01-08 12   25.1    46.2                  30          
1997-01-08 18   26.4    46.2                  30          
1997-01-09 00   27.4    46.3                  30          
Winds are 1-min average.

Tropical cyclone tracks developed by Michael Bath using data from the Joint Typhoon Warning Centre Best Tracks and Google Maps.


[Australian Severe Weather index] [Copyright Notice] [Email Contacts] [Search This Site] [Privacy Policy]
Document: tropical_cyclone_fabriola.htm Updated: 18 September 2016